Time;durP1;ratioP1;P1;durP2;ratioP2;P2;SDS_P1;SDS_P2;PMS_P1;PMS_P2;Temp;Humidity;BMP_temperature;BMP_pressure;BME280_temperature;BME280_humidity;BME280_pressure;Samples;Min_cycle;Max_cycle;Signal;HPM_P1;HPM_P2
2021/04/19 00:01:46;;;;;;;25.02;15.38;;;9.50;78.20;;;8.51;63.73;98628.34;5024311;28;20471;-79
2021/04/19 00:04:13;;;;;;;26.88;16.90;;;9.50;78.40;;;8.30;64.49;98631.19;5018244;28;20443;-79
2021/04/19 00:06:40;;;;;;;28.25;16.70;;;9.40;78.70;;;8.22;64.46;98629.59;5018137;28;20490;-79
2021/04/19 00:09:07;;;;;;;26.73;16.50;;;9.20;79.10;;;8.23;64.56;98630.41;5021695;28;20425;-78
2021/04/19 00:11:34;;;;;;;27.13;16.77;;;9.20;79.20;;;8.22;64.65;98634.88;5020612;28;20429;-78
2021/04/19 00:14:00;;;;;;;26.90;17.02;;;9.20;79.20;;;8.22;64.59;98631.41;5019803;28;20432;-78
2021/04/19 00:16:26;;;;;;;25.08;16.27;;;9.20;79.20;;;8.25;64.55;98631.84;5022067;28;20411;-80
2021/04/19 00:18:54;;;;;;;27.05;16.40;;;9.30;79.30;;;8.23;64.55;98625.13;5032976;28;20428;-78
2021/04/19 00:21:20;;;;;;;26.73;16.33;;;9.30;79.20;;;8.29;64.49;98627.75;5032604;28;20428;-79
2021/04/19 00:23:46;;;;;;;28.20;17.17;;;9.20;79.20;;;8.21;64.54;98621.88;5022090;28;20566;-78
2021/04/19 00:26:12;;;;;;;27.50;17.52;;;9.20;79.00;;;8.12;64.97;98626.56;5031247;28;20435;-78
2021/04/19 00:28:38;;;;;;;29.70;17.70;;;9.20;79.40;;;7.95;65.35;98625.38;5031480;28;20424;-78
2021/04/19 00:31:06;;;;;;;28.50;17.83;;;9.00;79.90;;;7.97;65.66;98623.34;5030653;28;20427;-78
2021/04/19 00:33:32;;;;;;;26.90;17.05;;;9.00;80.30;;;8.00;65.49;98628.19;5032895;28;20474;-78
2021/04/19 00:35:59;;;;;;;28.60;16.98;;;9.00;80.40;;;8.01;65.48;98622.72;5023258;28;20769;-78
2021/04/19 00:38:26;;;;;;;31.33;17.55;;;9.00;80.30;;;7.94;65.69;98626.38;5020562;28;20431;-78
2021/04/19 00:40:54;;;;;;;32.07;17.77;;;9.00;80.30;;;7.88;65.63;98621.94;5020875;28;20420;-79
2021/04/19 00:43:21;;;;;;;28.88;17.83;;;9.00;80.30;;;7.94;65.46;98611.38;5020755;28;20420;-78
2021/04/19 00:45:50;;;;;;;28.55;18.10;;;8.90;80.40;;;8.04;65.23;98624.94;5020471;28;20424;-78
2021/04/19 00:48:16;;;;;;;27.45;17.52;;;9.00;80.20;;;8.11;65.12;98615.22;5020512;28;20420;-78
2021/04/19 00:50:44;;;;;;;28.48;17.63;;;9.10;80.00;;;8.15;64.99;98610.31;5021219;28;20695;-79
2021/04/19 00:53:12;;;;;;;26.90;17.20;;;9.10;79.80;;;8.10;65.06;98603.03;5020539;28;20515;-79
2021/04/19 00:55:40;;;;;;;28.00;16.90;;;9.10;79.60;;;8.06;65.15;98604.44;5022080;28;20704;-79
2021/04/19 00:58:06;;;;;;;23.83;16.58;;;9.10;79.90;;;8.10;64.92;98603.03;5019771;28;20526;-79
2021/04/19 01:00:35;;;;;;;27.23;16.95;;;9.10;79.80;;;8.15;64.85;98599.78;5020945;28;20416;-79
2021/04/19 01:03:03;;;;;;;27.00;16.48;;;9.10;79.70;;;8.13;64.85;98607.06;5020826;28;20447;-79
2021/04/19 01:05:32;;;;;;;26.08;16.50;;;9.10;79.70;;;8.15;64.78;98605.06;5020830;28;20420;-79
2021/04/19 01:07:59;;;;;;;27.17;16.38;;;9.10;79.70;;;8.20;64.72;98601.78;5020657;28;20409;-79
2021/04/19 01:10:26;;;;;;;25.10;16.63;;;9.10;79.50;;;8.18;64.53;98598.56;5021651;28;20643;-79
2021/04/19 01:12:53;;;;;;;33.30;17.15;;;9.20;79.30;;;8.16;64.60;98604.84;5020060;28;20524;-79
2021/04/19 01:15:19;;;;;;;25.83;17.13;;;9.10;79.30;;;8.20;64.59;98605.25;5020657;28;20579;-79
2021/04/19 01:17:47;;;;;;;27.95;17.02;;;9.20;79.30;;;8.08;64.93;98605.06;5020317;28;20421;-78
2021/04/19 01:20:16;;;;;;;22.98;16.10;;;9.10;79.30;;;7.97;65.13;98605.69;5020537;28;20502;-79
2021/04/19 01:22:45;;;;;;;27.10;15.70;;;9.00;79.60;;;7.90;65.11;98601.41;5018761;28;20582;-80
2021/04/19 01:25:15;;;;;;;28.60;16.33;;;8.90;79.50;;;7.82;65.42;98599.81;5019274;28;20895;-79
2021/04/19 01:27:42;;;;;;;25.47;16.20;;;8.90;80.30;;;7.78;65.49;98609.13;5019639;28;20498;-79
2021/04/19 01:30:10;;;;;;;27.52;17.23;;;8.80;80.20;;;7.93;65.42;98606.28;5020629;28;20441;-79
2021/04/19 01:32:37;;;;;;;29.27;18.13;;;8.90;80.30;;;8.28;64.74;98598.94;5020148;28;20474;-79
2021/04/19 01:35:06;;;;;;;30.63;16.85;;;9.10;80.20;;;8.14;65.03;98601.59;5021139;28;20415;-79
2021/04/19 01:37:32;;;;;;;27.75;17.17;;;9.20;79.60;;;8.17;64.76;98595.13;5021246;28;20426;-79
2021/04/19 01:40:00;;;;;;;25.25;16.67;;;9.10;79.50;;;8.23;64.69;98601.38;5021909;28;20424;-79
2021/04/19 01:42:26;;;;;;;27.60;17.38;;;9.20;79.60;;;8.18;64.75;98593.28;5021597;28;20427;-79
2021/04/19 01:44:52;;;;;;;27.55;17.27;;;9.20;79.50;;;7.90;65.69;98596.97;5022771;28;20445;-79
2021/04/19 01:47:19;;;;;;;28.27;17.52;;;9.10;80.10;;;7.82;66.27;98607.72;5022708;28;20417;-80
2021/04/19 01:49:45;;;;;;;30.27;17.48;;;8.90;80.70;;;7.69;66.72;98605.09;5021237;28;20420;-80
2021/04/19 01:52:11;;;;;;;26.20;17.70;;;8.80;81.40;;;7.64;66.92;98596.97;5021470;28;20407;-80
2021/04/19 01:54:38;;;;;;;28.85;18.00;;;8.70;81.70;;;7.72;66.51;98594.16;5019557;28;20632;-77
2021/04/19 01:57:06;;;;;;;25.55;16.92;;;8.70;81.80;;;7.85;66.36;98595.97;5019255;28;20473;-80
2021/04/19 01:59:33;;;;;;;27.47;17.87;;;8.80;81.70;;;7.95;65.78;98589.28;5019612;28;20479;-80
2021/04/19 02:02:06;;;;;;;31.17;17.40;;;8.90;81.10;;;7.84;66.24;98586.44;5019616;28;20452;-78
2021/04/19 02:04:43;;;;;;;29.58;18.10;;;8.90;81.10;;;7.75;66.64;98585.81;5020674;28;20889;-80
2021/04/19 02:07:23;;;;;;;27.77;17.75;;;8.80;81.50;;;7.70;66.74;98590.91;5020695;28;20409;-80
2021/04/19 02:09:57;;;;;;;28.17;17.73;;;8.70;81.80;;;7.70;66.97;98588.25;5024173;28;20408;-79
2021/04/19 02:12:41;;;;;;;32.22;18.40;;;8.70;81.90;;;7.80;66.59;98587.84;5022707;28;20423;-79
2021/04/19 02:15:13;;;;;;;27.38;17.38;;;8.80;81.80;;;7.87;66.40;98588.66;5023502;28;20401;-79
2021/04/19 02:17:48;;;;;;;29.52;18.17;;;8.80;81.60;;;7.98;65.86;98578.28;5022113;28;20412;-79
2021/04/19 02:20:30;;;;;;;24.08;16.65;;;8.90;81.10;;;7.98;65.91;98578.28;5024697;28;20419;-79
2021/04/19 02:23:01;;;;;;;27.60;17.60;;;9.00;80.70;;;7.97;65.96;98573.25;5019268;28;20423;-79
2021/04/19 02:25:34;;;;;;;26.60;16.55;;;9.00;80.70;;;8.10;65.77;98578.50;5020043;28;20518;-79
2021/04/19 02:28:07;;;;;;;23.00;15.43;;;9.00;81.00;;;8.14;65.23;98575.22;5020192;28;20437;-79
2021/04/19 02:30:37;;;;;;;26.20;15.00;;;9.10;80.20;;;7.86;65.28;98573.84;5018257;28;20527;-79
2021/04/19 02:33:08;;;;;;;23.98;15.60;;;9.00;80.40;;;7.75;65.54;98578.72;5020658;28;20489;-79
2021/04/19 02:35:36;;;;;;;25.85;14.85;;;8.80;80.10;;;7.68;65.79;98585.00;5018783;28;20461;-79
2021/04/19 02:38:04;;;;;;;28.60;15.43;;;8.70;80.50;;;7.72;66.01;98578.34;5018773;28;20483;-79
2021/04/19 02:40:35;;;;;;;25.00;16.17;;;8.70;80.70;;;8.03;65.56;98570.59;5018383;28;20447;-80
2021/04/19 02:43:05;;;;;;;27.42;16.50;;;8.90;81.10;;;7.90;65.66;98573.22;5018818;28;20562;-79
2021/04/19 02:45:32;;;;;;;27.17;15.75;;;8.90;80.40;;;7.90;65.48;98569.78;5020687;28;20421;-79
2021/04/19 02:48:00;;;;;;;26.03;16.27;;;8.90;80.50;;;7.93;65.34;98575.47;5021563;28;20423;-79
2021/04/19 02:50:27;;;;;;;25.10;15.68;;;8.90;80.30;;;7.97;65.12;98574.03;5024256;28;20412;-79
2021/04/19 02:52:55;;;;;;;26.55;16.60;;;9.00;80.10;;;7.91;65.21;98582.78;5024814;28;20435;-79
2021/04/19 02:55:26;;;;;;;24.67;15.73;;;8.90;80.10;;;7.85;65.30;98574.88;5027282;28;20411;-78
2021/04/19 02:57:57;;;;;;;24.87;15.47;;;8.90;80.10;;;7.98;64.99;98580.13;5027328;28;20412;-79
2021/04/19 03:00:28;;;;;;;26.90;15.48;;;8.90;80.30;;;7.74;65.77;98592.13;5026106;28;20579;-79
2021/04/19 03:02:57;;;;;;;27.97;16.83;;;8.90;81.00;;;7.67;66.32;98580.75;5019594;28;20863;-79
2021/04/19 03:05:24;;;;;;;27.33;16.38;;;8.80;81.00;;;7.71;66.35;98587.25;5019921;28;20459;-79
2021/04/19 03:08:03;;;;;;;28.13;16.75;;;8.70;81.40;;;7.66;66.51;98577.31;5022693;28;20408;-79
2021/04/19 03:10:36;;;;;;;26.13;16.83;;;8.70;81.20;;;7.85;66.15;98573.03;5023563;28;20460;-79
2021/04/19 03:13:04;;;;;;;26.58;17.02;;;8.80;81.20;;;7.90;65.85;98575.06;5026664;28;20416;-79
2021/04/19 03:15:36;;;;;;;26.98;16.83;;;8.90;80.80;;;7.93;65.54;98570.19;5033459;28;20401;-79
2021/04/19 03:18:06;;;;;;;27.08;17.27;;;8.90;80.70;;;7.90;65.72;98570.59;5020500;28;20412;-79
2021/04/19 03:20:50;;;;;;;26.40;16.63;;;8.90;80.60;;;7.85;66.04;98561.69;5019394;28;20405;-79
2021/04/19 03:23:18;;;;;;;27.52;16.77;;;8.90;80.80;;;7.89;66.04;98569.00;5021115;28;20489;-79
2021/04/19 03:25:45;;;;;;;23.95;15.70;;;8.90;81.00;;;7.93;65.72;98562.28;5019401;28;20519;-79
2021/04/19 03:28:15;;;;;;;27.10;16.90;;;8.90;80.90;;;7.91;65.81;98561.69;5023888;28;20484;-79
2021/04/19 03:30:42;;;;;;;24.60;15.68;;;8.90;80.70;;;7.89;66.02;98561.09;5027733;28;20404;-78
2021/04/19 03:33:10;;;;;;;27.07;16.00;;;8.90;81.00;;;7.81;66.25;98568.41;5027659;28;20420;-79
2021/04/19 03:35:38;;;;;;;26.73;16.60;;;8.90;81.80;;;7.64;66.88;98565.34;5029843;28;20419;-79
2021/04/19 03:38:06;;;;;;;26.63;17.58;;;8.70;81.40;;;7.49;67.44;98565.56;5026275;28;20903;-79
2021/04/19 03:40:34;;;;;;;26.02;17.13;;;8.50;82.30;;;7.33;68.11;98566.75;5018179;28;20413;-79
2021/04/19 03:43:05;;;;;;;30.33;18.10;;;8.50;82.90;;;7.26;68.56;98567.75;5017026;28;20408;-79
2021/04/19 03:45:36;;;;;;;28.10;18.48;;;8.30;83.60;;;7.26;68.42;98565.94;5018160;28;20519;-79
2021/04/19 03:48:08;;;;;;;30.60;19.05;;;8.30;83.50;;;7.31;68.09;98555.59;5017869;28;20432;-79
2021/04/19 03:50:38;;;;;;;32.70;20.60;;;8.30;83.40;;;7.46;67.76;98555.41;5018595;28;20822;-79
2021/04/19 03:53:06;;;;;;;28.27;19.25;;;8.40;83.10;;;7.35;67.94;98562.13;5026416;28;20409;-79
2021/04/19 03:55:34;;;;;;;33.10;20.33;;;8.40;82.80;;;7.31;67.98;98566.16;5033757;28;20423;-79
2021/04/19 03:58:01;;;;;;;36.80;20.35;;;8.40;83.00;;;7.44;67.88;98560.09;5021259;28;20432;-79
2021/04/19 04:00:28;;;;;;;29.38;20.17;;;8.40;83.10;;;7.53;67.11;98558.84;5018064;28;20401;-79
2021/04/19 04:02:56;;;;;;;30.95;19.77;;;8.50;82.40;;;7.65;66.65;98556.44;5017598;28;20417;-79
2021/04/19 04:05:23;;;;;;;29.23;20.55;;;8.60;82.20;;;7.64;66.92;98560.09;5017800;28;20456;-79
2021/04/19 04:07:51;;;;;;;29.65;18.20;;;8.70;81.90;;;7.63;67.32;98569.00;5017141;28;20519;-79
2021/04/19 04:10:20;;;;;;;30.85;18.52;;;8.60;82.50;;;7.74;67.31;98553.38;5017508;28;20461;-79
2021/04/19 04:12:47;;;;;;;31.50;16.90;;;8.70;82.50;;;7.60;67.70;98553.59;5018606;28;20420;-79
2021/04/19 04:15:16;;;;;;;30.73;18.52;;;8.70;82.60;;;7.55;67.79;98564.75;5018292;28;20417;-79
2021/04/19 04:17:43;;;;;;;28.75;18.83;;;8.60;82.80;;;7.46;67.96;98565.13;5016868;28;20455;-78
2021/04/19 04:20:12;;;;;;;30.10;19.38;;;8.50;82.80;;;7.41;67.87;98557.84;5016934;28;20660;-78
2021/04/19 04:22:40;;;;;;;32.03;18.77;;;8.50;82.90;;;7.41;68.17;98559.69;5017778;28;20420;-79
2021/04/19 04:25:09;;;;;;;27.10;19.17;;;8.40;83.00;;;7.36;68.21;98557.66;5016916;28;20528;-78
2021/04/19 04:27:36;;;;;;;27.43;18.83;;;8.40;84.00;;;7.34;68.10;98554.41;5023223;28;20440;-78
2021/04/19 04:30:04;;;;;;;32.40;19.90;;;8.40;83.30;;;7.37;68.06;98562.69;5029737;28;20413;-79
2021/04/19 04:32:30;;;;;;;34.20;19.10;;;8.40;83.10;;;7.39;68.12;98559.88;5027869;28;20440;-77
2021/04/19 04:34:57;;;;;;;30.00;19.02;;;8.50;83.20;;;7.41;68.13;98557.84;5026903;28;20881;-78
2021/04/19 04:37:23;;;;;;;29.48;19.33;;;8.50;83.20;;;7.46;67.98;98557.22;5021200;28;20511;-79
2021/04/19 04:39:50;;;;;;;30.23;19.10;;;8.50;83.00;;;7.46;67.83;98559.88;5018760;28;20419;-79
2021/04/19 04:42:19;;;;;;;30.30;19.40;;;8.50;82.80;;;7.49;67.98;98570.00;5020798;28;20471;-79
2021/04/19 04:44:48;;;;;;;29.90;18.95;;;8.50;83.60;;;7.48;67.93;98563.13;5025814;28;20431;-78
2021/04/19 04:47:26;;;;;;;32.35;19.50;;;8.50;82.80;;;7.49;67.61;98564.75;5024054;28;20430;-79
2021/04/19 04:50:06;;;;;;;33.25;19.85;;;8.50;82.60;;;7.57;67.61;98557.47;5024965;28;20832;-80
2021/04/19 04:52:43;;;;;;;31.52;20.05;;;8.60;82.90;;;7.56;67.41;98568.19;5024877;28;20507;-81
2021/04/19 04:55:14;;;;;;;33.45;21.13;;;8.60;82.50;;;7.76;67.11;98559.25;5026296;28;20405;-79
2021/04/19 04:57:45;;;;;;;33.33;22.15;;;8.70;82.60;;;7.98;65.75;98573.03;5022015;28;20523;-78
2021/04/19 05:00:13;;;;;;;36.95;22.02;;;9.00;81.20;;;7.67;67.01;98567.56;5022588;28;20765;-78
2021/04/19 05:02:41;;;;;;;37.15;24.63;;;8.80;81.50;;;7.52;67.99;98574.91;5025830;28;20443;-79
2021/04/19 05:05:10;;;;;;;40.38;24.23;;;8.60;82.80;;;7.45;69.24;98568.78;5029158;28;20429;-80
2021/04/19 05:07:38;;;;;;;40.37;24.50;;;8.50;84.20;;;7.41;69.74;98570.22;5024489;28;20477;-79
2021/04/19 05:10:07;;;;;;;54.40;30.87;;;8.50;85.10;;;7.50;69.06;98574.28;5022251;28;20838;-78
2021/04/19 05:12:34;;;;;;;40.80;24.40;;;8.50;84.60;;;7.54;68.35;98573.66;5023506;28;20432;-78
2021/04/19 05:15:09;;;;;;;38.60;24.52;;;8.50;83.90;;;7.58;69.55;98569.63;5022794;28;20409;-79
2021/04/19 05:17:36;;;;;;;45.57;26.87;;;8.60;84.90;;;7.54;69.71;98568.38;5021748;28;20667;-79
2021/04/19 05:20:05;;;;;;;39.00;26.20;;;8.60;85.20;;;7.58;70.00;98574.06;5021238;28;20567;-79
2021/04/19 05:22:31;;;;;;;38.87;24.27;;;8.60;85.20;;;7.67;70.59;98581.56;5021854;28;20478;-79
2021/04/19 05:24:58;;;;;;;38.78;23.23;;;8.70;86.10;;;7.76;70.10;98575.06;5024153;28;20425;-78
2021/04/19 05:27:24;;;;;;;40.60;23.48;;;8.80;85.60;;;7.77;71.05;98575.88;5022734;28;21171;-79
2021/04/19 05:29:52;;;;;;;38.97;21.15;;;8.80;86.50;;;7.87;70.81;98576.28;5021829;28;20861;-78
2021/04/19 05:32:21;;;;;;;35.60;21.05;;;8.90;86.40;;;7.82;70.84;98570.03;5022329;28;20413;-78
2021/04/19 05:34:48;;;;;;;33.35;21.08;;;8.80;86.30;;;7.73;71.72;98575.50;5026877;28;20439;-79
2021/04/19 05:37:17;;;;;;;34.03;20.27;;;8.80;87.00;;;7.68;71.54;98583.19;5023420;28;20904;-79
2021/04/19 05:39:44;;;;;;;38.92;21.88;;;8.70;87.00;;;7.61;71.44;98578.94;5022619;28;20442;-79
2021/04/19 05:42:13;;;;;;;38.73;20.43;;;8.70;87.00;;;7.54;71.30;98581.56;5024872;28;20476;-79
2021/04/19 05:44:41;;;;;;;34.70;20.25;;;8.60;86.80;;;7.53;71.66;98581.75;5021644;28;20425;-80
2021/04/19 05:47:09;;;;;;;35.50;21.92;;;8.60;87.20;;;7.54;72.91;98581.56;5020635;28;20423;-79
2021/04/19 05:49:36;;;;;;;34.63;20.92;;;8.60;88.60;;;7.47;71.97;98579.94;5019583;28;20511;-79
2021/04/19 05:52:06;;;;;;;35.85;21.60;;;8.60;87.60;;;7.74;72.83;98584.22;5020982;28;20405;-79
2021/04/19 05:54:35;;;;;;;42.97;21.58;;;8.60;89.30;;;7.74;73.95;98590.28;5018342;28;20483;-79
2021/04/19 05:57:16;;;;;;;41.97;22.55;;;8.70;90.00;;;7.87;73.54;98596.56;5020824;28;20911;-79
2021/04/19 05:59:54;;;;;;;39.87;22.33;;;8.80;89.80;;;7.92;71.79;98594.94;5021432;28;20413;-80
2021/04/19 06:02:38;;;;;;;40.00;22.95;;;8.90;88.30;;;7.86;72.16;98592.31;5015651;28;20454;-80
2021/04/19 06:05:12;;;;;;;43.30;27.80;;;8.90;88.10;;;7.74;73.02;98600.81;5015976;28;20437;-79
2021/04/19 06:07:44;;;;;;;41.55;26.38;;;8.80;88.70;;;7.66;73.01;98606.31;5016364;28;20432;-80
2021/04/19 06:10:14;;;;;;;41.00;25.92;;;8.70;88.60;;;7.59;73.66;98604.69;5017358;28;20909;-81
2021/04/19 06:12:50;;;;;;;42.00;27.23;;;8.60;89.50;;;7.54;73.92;98604.47;5019324;28;20424;-78
2021/04/19 06:15:21;;;;;;;42.78;25.35;;;8.60;89.90;;;7.61;73.93;98605.28;5017846;28;25117;-79
2021/04/19 06:17:52;;;;;;;42.15;25.98;;;8.60;89.90;;;7.53;74.79;98605.47;5018527;28;20440;-79
2021/04/19 06:20:21;;;;;;;38.75;25.58;;;8.60;90.30;;;7.49;74.92;98610.34;5019985;28;20457;-78
2021/04/19 06:22:50;;;;;;;39.23;25.70;;;8.50;90.30;;;7.41;75.22;98618.44;5018922;28;20416;-79
2021/04/19 06:25:17;;;;;;;43.53;26.60;;;8.50;90.60;;;7.48;75.48;98611.34;5020905;28;20441;-79
2021/04/19 06:27:44;;;;;;;43.05;25.58;;;8.50;90.80;;;7.54;75.33;98613.19;5020529;28;20408;-79
2021/04/19 06:30:20;;;;;;;44.70;27.10;;;8.50;90.80;;;7.72;74.16;98604.69;5019347;28;20879;-79
2021/04/19 06:32:51;;;;;;;39.38;24.65;;;8.60;90.70;;;7.87;72.45;98610.56;5019855;28;20427;-78
2021/04/19 06:35:19;;;;;;;37.25;24.35;;;8.80;88.60;;;7.89;72.19;98605.91;5028362;28;20420;-78
2021/04/19 06:37:49;;;;;;;45.50;26.80;;;8.90;88.30;;;7.74;72.62;98616.63;5026620;28;20417;-78
2021/04/19 06:40:17;;;;;;;71.35;35.42;;;8.80;88.80;;;7.67;74.07;98612.38;5020587;28;20421;-79
2021/04/19 06:42:43;;;;;;;57.00;29.60;;;8.70;90.00;;;7.65;74.55;98612.59;5019901;28;20443;-79
2021/04/19 06:45:15;;;;;;;44.05;27.15;;;8.70;90.20;;;7.62;74.89;98615.63;5020581;28;20424;-79
2021/04/19 06:47:42;;;;;;;42.50;24.95;;;8.60;90.40;;;7.60;74.44;98616.81;5017905;28;20519;-78
2021/04/19 06:50:11;;;;;;;42.00;25.17;;;8.70;90.60;;;7.51;74.54;98616.25;5017696;28;20424;-78
2021/04/19 06:52:39;;;;;;;40.08;23.50;;;8.50;90.20;;;7.47;73.64;98616.81;5021291;28;20695;-78
2021/04/19 06:55:07;;;;;;;37.72;23.02;;;8.50;89.70;;;7.52;73.90;98614.41;5018696;28;20409;-79
2021/04/19 06:57:40;;;;;;;36.97;23.48;;;8.50;90.00;;;7.75;73.75;98614.81;5018521;28;20483;-78
2021/04/19 07:00:08;;;;;;;37.78;22.92;;;8.70;90.50;;;7.73;73.50;98620.31;5019658;28;20408;-79
2021/04/19 07:02:47;;;;;;;37.72;24.42;;;8.70;90.00;;;7.58;74.55;98617.06;5017825;28;20421;-79
2021/04/19 07:05:20;;;;;;;40.15;24.35;;;8.60;90.30;;;7.53;74.96;98616.81;5017839;28;20433;-79
2021/04/19 07:08:06;;;;;;;43.22;27.40;;;8.60;90.50;;;7.54;75.12;98617.63;5020130;28;20417;-79
2021/04/19 07:10:34;;;;;;;38.15;24.73;;;8.60;90.60;;;7.56;75.28;98620.88;5019178;28;20412;-79
2021/04/19 07:13:07;;;;;;;42.57;24.67;;;8.50;90.60;;;7.52;75.20;98622.31;5019335;28;20413;-79
2021/04/19 07:15:36;;;;;;;38.38;23.42;;;8.60;90.60;;;7.49;75.01;98625.34;5018991;28;20420;-79
2021/04/19 07:18:05;;;;;;;34.10;22.95;;;8.50;90.40;;;7.45;75.29;98627.56;5017905;28;20416;-79
2021/04/19 07:20:33;;;;;;;36.58;23.05;;;8.50;90.70;;;7.62;74.49;98623.53;5018685;28;20708;-79
2021/04/19 07:23:01;;;;;;;34.45;21.80;;;8.60;90.50;;;7.63;74.26;98626.97;5019518;28;20490;-78
2021/04/19 07:25:27;;;;;;;36.60;21.05;;;8.60;90.30;;;7.82;73.09;98622.75;5017146;28;20453;-78
2021/04/19 07:27:55;;;;;;;36.20;21.65;;;8.80;89.70;;;7.94;72.52;98623.75;5018164;28;20417;-80
2021/04/19 07:30:22;;;;;;;32.08;20.25;;;8.80;89.10;;;7.91;72.39;98627.59;5020554;28;20413;-78
2021/04/19 07:32:48;;;;;;;33.15;20.73;;;8.90;88.70;;;7.87;72.89;98626.38;5019897;28;20753;-79
2021/04/19 07:35:15;;;;;;;40.20;22.17;;;8.80;89.10;;;7.72;74.55;98631.03;5018176;28;20444;-79
2021/04/19 07:37:57;;;;;;;36.25;22.83;;;8.70;90.20;;;7.71;74.38;98621.50;5022627;28;20427;-79
2021/04/19 07:40:32;;;;;;;36.38;22.75;;;8.70;90.40;;;7.86;73.88;98623.94;5030235;28;20436;-79
2021/04/19 07:43:12;;;;;;;40.83;24.05;;;8.70;90.30;;;7.86;73.33;98616.84;5030718;28;20424;-78
2021/04/19 07:45:57;;;;;;;39.78;22.48;;;8.80;89.50;;;7.80;73.95;98617.66;5031793;28;20436;-78
2021/04/19 07:48:32;;;;;;;38.30;22.55;;;8.80;90.10;;;7.83;73.99;98622.50;5030373;28;20589;-78
2021/04/19 07:50:58;;;;;;;37.83;22.98;;;8.80;90.10;;;7.83;73.50;98613.78;5021431;28;20425;-79
2021/04/19 07:53:26;;;;;;;32.37;20.97;;;8.80;89.70;;;7.87;73.29;98618.47;5018498;28;20443;-79
2021/04/19 07:55:53;;;;;;;34.90;20.65;;;8.80;89.70;;;8.06;72.51;98609.72;5018002;28;20768;-78
2021/04/19 07:58:22;;;;;;;34.13;20.17;;;9.00;89.50;;;8.12;72.04;98611.53;5016224;28;20427;-77
2021/04/19 08:00:50;;;;;;;36.53;21.35;;;9.00;88.70;;;7.98;72.42;98615.22;5021000;28;20470;-77
2021/04/19 08:03:17;;;;;;;30.27;19.92;;;8.90;88.70;;;8.20;71.86;98610.50;5026393;28;20424;-77
2021/04/19 08:05:48;;;;;;;36.15;20.70;;;9.10;88.40;;;8.10;72.61;98613.59;5026141;28;20837;-77
2021/04/19 08:08:17;;;;;;;31.35;20.17;;;9.10;88.70;;;8.06;71.88;98612.38;5021489;28;20480;-77
2021/04/19 08:10:46;;;;;;;35.10;21.88;;;9.10;87.90;;;8.11;73.12;98617.03;5014234;28;20431;-78
2021/04/19 08:13:14;;;;;;;32.88;20.38;;;9.00;89.20;;;7.99;72.54;98616.03;5013736;28;20425;-77
2021/04/19 08:15:46;;;;;;;32.25;20.25;;;9.00;88.50;;;8.06;72.66;98606.28;5013345;28;20404;-77
2021/04/19 08:18:14;;;;;;;33.60;20.20;;;9.00;88.90;;;8.20;73.07;98607.88;5013458;28;20456;-79
2021/04/19 08:20:49;;;;;;;34.43;18.83;;;9.10;89.30;;;8.38;71.24;98604.63;5014154;28;20427;-78
2021/04/19 08:23:17;;;;;;;34.10;19.80;;;9.30;87.90;;;8.16;72.71;98610.13;5012607;28;20428;-77
2021/04/19 08:25:46;;;;;;;39.88;22.50;;;9.20;88.50;;;8.14;73.84;98612.16;5012065;28;20462;-77
2021/04/19 08:28:15;;;;;;;65.35;33.20;;;9.20;90.00;;;7.97;74.31;98610.94;5015501;28;20464;-77
2021/04/19 08:30:45;;;;;;;46.05;22.02;;;9.00;90.10;;;7.92;74.34;98609.94;5018073;28;20549;-77
2021/04/19 08:33:12;;;;;;;35.08;20.33;;;8.90;90.10;;;8.30;73.14;98612.75;5018346;28;20486;-77
2021/04/19 08:35:40;;;;;;;30.98;19.63;;;9.10;90.00;;;8.31;72.76;98609.13;5023155;28;20411;-77
2021/04/19 08:38:08;;;;;;;32.35;19.52;;;9.20;89.10;;;8.13;72.97;98604.44;5025109;28;20451;-77
2021/04/19 08:40:36;;;;;;;33.08;20.17;;;9.20;89.00;;;8.02;74.23;98605.06;5028136;28;20424;-77
2021/04/19 08:43:10;;;;;;;32.05;19.75;;;9.00;90.10;;;8.11;73.68;98609.13;5026715;28;20432;-77
2021/04/19 08:45:41;;;;;;;34.08;20.70;;;9.00;90.00;;;8.10;74.09;98621.50;5020287;28;20429;-77
2021/04/19 08:48:12;;;;;;;32.90;19.75;;;9.00;90.10;;;8.15;73.36;98612.97;5031088;28;20408;-76
2021/04/19 08:50:40;;;;;;;32.47;20.50;;;9.10;90.00;;;8.11;73.27;98619.69;5019897;28;20699;-78
2021/04/19 08:53:09;;;;;;;43.00;22.27;;;9.10;89.50;;;8.02;74.27;98626.97;5017395;28;20748;-79
2021/04/19 08:55:38;;;;;;;34.63;20.15;;;9.00;90.10;;;8.34;72.80;98621.91;5021352;28;20429;-77
2021/04/19 08:58:09;;;;;;;29.55;19.20;;;9.20;89.60;;;8.36;72.73;98620.66;5017108;28;20499;-78
2021/04/19 09:00:37;;;;;;;33.53;20.65;;;9.30;89.20;;;8.25;73.34;98623.09;5018434;28;20424;-77
2021/04/19 09:03:04;;;;;;;33.30;20.33;;;9.30;89.70;;;8.16;73.90;98630.41;5018153;28;20443;-77
2021/04/19 09:05:30;;;;;;;32.00;20.40;;;9.20;90.00;;;8.07;73.12;98621.09;5021964;28;20538;-79
2021/04/19 09:08:06;;;;;;;34.75;20.85;;;9.10;89.30;;;8.03;73.20;98627.81;5018942;28;20417;-77
2021/04/19 09:10:52;;;;;;;30.38;18.65;;;9.00;89.30;;;8.32;71.87;98622.09;5024673;28;20458;-77
2021/04/19 09:13:31;;;;;;;55.30;27.17;;;9.20;88.60;;;8.30;72.18;98623.28;5028236;28;20463;-78
2021/04/19 09:16:16;;;;;;;35.87;21.93;;;9.30;88.50;;;8.20;73.31;98628.16;5029775;28;20471;-78
2021/04/19 09:18:44;;;;;;;34.87;20.67;;;9.20;89.10;;;8.14;73.68;98632.44;5024325;28;20422;-78
2021/04/19 09:21:39;;;;;;;33.22;20.85;;;9.10;89.80;;;8.19;74.38;98622.09;5029032;28;20439;-79
2021/04/19 09:24:09;;;;;;;31.00;19.48;;;9.20;90.20;;;8.26;73.69;98622.91;5021271;28;20441;-78
2021/04/19 09:27:01;;;;;;;35.20;21.05;;;9.20;89.90;;;8.25;74.02;98626.56;5019009;28;20452;-78
2021/04/19 09:29:47;;;;;;;32.15;20.05;;;9.20;90.10;;;8.37;73.99;98626.75;4989489;28;20459;-79
2021/04/19 09:32:24;;;;;;;31.43;19.77;;;9.30;90.20;;;8.35;73.90;98628.78;5020278;28;20518;-79
2021/04/19 09:34:54;;;;;;;29.90;20.13;;;9.30;90.00;;;8.65;73.44;98635.19;5022586;28;20463;-78
2021/04/19 09:37:22;;;;;;;35.60;22.08;;;9.40;90.20;;;8.48;73.41;98628.78;5023327;28;20440;-79
2021/04/19 09:40:05;;;;;;;34.88;21.52;;;9.50;89.70;;;8.47;73.71;98632.44;5021985;28;20499;-79
2021/04/19 09:43:07;;;;;;;30.40;19.80;;;9.40;89.70;;;8.62;73.13;98627.72;5022799;28;20472;-78
2021/04/19 09:45:53;;;;;;;33.37;20.50;;;9.50;89.90;;;8.57;73.44;98630.16;5022842;28;20770;-78
2021/04/19 09:48:40;;;;;;;32.75;19.95;;;9.50;89.70;;;8.59;72.25;98625.47;5025131;28;20577;-78
2021/04/19 09:51:16;;;;;;;30.85;19.88;;;9.50;89.00;;;8.44;73.39;98631.00;5025962;28;20478;-78
2021/04/19 09:53:55;;;;;;;32.88;20.63;;;9.50;89.70;;;8.35;73.96;98629.59;5023404;28;20478;-79
2021/04/19 09:56:25;;;;;;;31.55;20.25;;;9.30;90.00;;;8.37;72.92;98624.94;5022232;28;20592;-77
2021/04/19 09:58:51;;;;;;;32.90;21.77;;;9.40;89.30;;;8.46;73.64;98628.97;5017605;28;20750;-78
2021/04/19 10:01:23;;;;;;;37.72;21.02;;;9.40;90.00;;;8.62;73.21;98627.72;5028200;28;20502;-78
2021/04/19 10:03:52;;;;;;;36.55;20.90;;;9.50;89.60;;;8.72;72.71;98625.44;5025967;28;20747;-78
2021/04/19 10:06:24;;;;;;;32.80;20.92;;;9.60;89.30;;;8.78;71.80;98632.53;5022123;28;20480;-77
2021/04/19 10:08:52;;;;;;;34.45;21.58;;;9.70;88.00;;;8.68;73.11;98629.53;5024276;28;20928;-78
2021/04/19 10:11:24;;;;;;;33.78;21.52;;;9.60;89.00;;;8.79;72.45;98633.34;5025090;28;20447;-79
2021/04/19 10:13:51;;;;;;;34.72;21.00;;;9.70;88.60;;;8.73;71.97;98632.34;5027240;28;20471;-77
2021/04/19 10:16:18;;;;;;;35.10;21.23;;;9.70;88.40;;;8.65;72.92;98627.28;5022839;28;20459;-77
2021/04/19 10:18:49;;;;;;;32.80;21.27;;;9.60;88.90;;;8.64;73.44;98632.78;5021449;28;20455;-78
2021/04/19 10:21:28;;;;;;;34.05;21.58;;;9.60;89.70;;;8.74;73.06;98626.03;5022607;28;20430;-77
2021/04/19 10:23:57;;;;;;;39.47;24.10;;;9.70;89.60;;;8.66;73.49;98633.38;5025622;28;20478;-77
2021/04/19 10:26:37;;;;;;;37.10;22.20;;;9.70;89.60;;;8.75;74.43;98629.50;5023274;28;20434;-77
2021/04/19 10:29:16;;;;;;;33.78;21.70;;;9.70;90.30;;;8.64;73.29;98628.31;5023760;28;20486;-78
2021/04/19 10:31:50;;;;;;;40.60;24.38;;;9.70;89.60;;;8.65;73.91;98629.91;5024429;28;20475;-78
2021/04/19 10:34:16;;;;;;;37.92;22.08;;;9.60;90.00;;;8.69;73.77;98628.50;5023143;28;20474;-78